Terminal Aerodrome Forecast
Issued by NWS

Home | Current Version | Previous Version | Text Only | Print | Product List | Glossary On
Versions: 1 2 3 4 5 6 7 8 9 10 11 12 13
000
FTUS45 KRIW 280034 AAA
TAFBPI
TAF AMD
KBPI 280034Z 2801/2824 35010G17KT P6SM SCT070
     FM280200 35009KT P6SM FEW080
     FM282200 32007KT P6SM VCTS SCT060CB=

USA.gov is the U.S. government's official web portal to all federal, state and local government web resources and services.